sensor_id;sensor_type;location;lat;lon;timestamp;temperature;humidity
52127;DHT22;38120;53.176;6.614;2023-04-03T00:00:42;2.50;99.90
52127;DHT22;38120;53.176;6.614;2023-04-03T00:03:08;2.50;99.90
52127;DHT22;38120;53.176;6.614;2023-04-03T00:05:33;2.50;99.90
52127;DHT22;38120;53.176;6.614;2023-04-03T00:07:59;2.50;99.90
52127;DHT22;38120;53.176;6.614;2023-04-03T00:10:27;3.50;99.90
52127;DHT22;38120;53.176;6.614;2023-04-03T00:12:53;2.40;99.90
52127;DHT22;38120;53.176;6.614;2023-04-03T00:15:19;3.00;99.90
52127;DHT22;38120;53.176;6.614;2023-04-03T00:17:45;3.40;99.90
52127;DHT22;38120;53.176;6.614;2023-04-03T00:20:11;2.20;99.90
52127;DHT22;38120;53.176;6.614;2023-04-03T00:22:37;2.20;99.90
52127;DHT22;38120;53.176;6.614;2023-04-03T00:25:03;2.20;99.90
52127;DHT22;38120;53.176;6.614;2023-04-03T00:27:29;2.20;99.90
52127;DHT22;38120;53.176;6.614;2023-04-03T00:29:57;3.40;99.90
52127;DHT22;38120;53.176;6.614;2023-04-03T00:32:23;3.20;99.90
52127;DHT22;38120;53.176;6.614;2023-04-03T00:34:49;2.10;99.90
52127;DHT22;38120;53.176;6.614;2023-04-03T00:37:15;2.90;99.90
52127;DHT22;38120;53.176;6.614;2023-04-03T00:39:40;2.70;99.90
52127;DHT22;38120;53.176;6.614;2023-04-03T00:42:06;2.00;99.90
52127;DHT22;38120;53.176;6.614;2023-04-03T00:47:04;2.00;99.90
52127;DHT22;38120;53.176;6.614;2023-04-03T00:49:31;2.10;99.90
52127;DHT22;38120;53.176;6.614;2023-04-03T00:51:58;2.00;99.90
52127;DHT22;38120;53.176;6.614;2023-04-03T00:54:24;1.90;99.90
52127;DHT22;38120;53.176;6.614;2023-04-03T00:56:52;3.20;99.90
52127;DHT22;38120;53.176;6.614;2023-04-03T00:59:22;3.60;99.90
52127;DHT22;38120;53.176;6.614;2023-04-03T01:01:55;1.80;99.90
52127;DHT22;38120;53.176;6.614;2023-04-03T01:04:41;1.80;99.90
52127;DHT22;38120;53.176;6.614;2023-04-03T01:07:12;1.80;99.90
52127;DHT22;38120;53.176;6.614;2023-04-03T01:09:40;1.70;99.90
52127;DHT22;38120;53.176;6.614;2023-04-03T01:12:13;1.70;99.90
52127;DHT22;38120;53.176;6.614;2023-04-03T01:14:39;1.60;99.90
52127;DHT22;38120;53.176;6.614;2023-04-03T01:17:35;1.60;99.90
52127;DHT22;38120;53.176;6.614;2023-04-03T01:23:06;1.50;99.90
52127;DHT22;38120;53.176;6.614;2023-04-03T01:25:52;1.50;99.90
52127;DHT22;38120;53.176;6.614;2023-04-03T01:28:30;1.50;99.90
52127;DHT22;38120;53.176;6.614;2023-04-03T01:33:37;1.40;99.90
52127;DHT22;38120;53.176;6.614;2023-04-03T01:36:03;1.30;99.90
52127;DHT22;38120;53.176;6.614;2023-04-03T01:38:29;1.30;99.90
52127;DHT22;38120;53.176;6.614;2023-04-03T01:40:55;1.30;99.90
52127;DHT22;38120;53.176;6.614;2023-04-03T01:43:21;1.20;99.90
52127;DHT22;38120;53.176;6.614;2023-04-03T01:45:47;1.20;99.90
52127;DHT22;38120;53.176;6.614;2023-04-03T01:48:15;2.00;99.90
52127;DHT22;38120;53.176;6.614;2023-04-03T01:50:41;1.50;99.90
52127;DHT22;38120;53.176;6.614;2023-04-03T01:53:06;1.10;99.90
52127;DHT22;38120;53.176;6.614;2023-04-03T01:55:32;1.10;99.90
52127;DHT22;38120;53.176;6.614;2023-04-03T01:57:58;1.10;99.90
52127;DHT22;38120;53.176;6.614;2023-04-03T02:00:24;1.10;99.90
52127;DHT22;38120;53.176;6.614;2023-04-03T02:02:50;1.10;99.90
52127;DHT22;38120;53.176;6.614;2023-04-03T02:05:16;1.20;99.90
52127;DHT22;38120;53.176;6.614;2023-04-03T02:07:41;1.00;99.90
52127;DHT22;38120;53.176;6.614;2023-04-03T02:10:07;1.00;99.90
52127;DHT22;38120;53.176;6.614;2023-04-03T02:12:33;1.00;99.90
52127;DHT22;38120;53.176;6.614;2023-04-03T02:15:01;1.00;99.90
52127;DHT22;38120;53.176;6.614;2023-04-03T02:17:30;1.10;99.90
52127;DHT22;38120;53.176;6.614;2023-04-03T02:19:55;0.90;99.90
52127;DHT22;38120;53.176;6.614;2023-04-03T02:22:21;0.80;99.90
52127;DHT22;38120;53.176;6.614;2023-04-03T02:24:47;0.80;99.90
52127;DHT22;38120;53.176;6.614;2023-04-03T02:27:13;0.70;99.90
52127;DHT22;38120;53.176;6.614;2023-04-03T02:29:39;0.70;99.90
52127;DHT22;38120;53.176;6.614;2023-04-03T02:32:05;0.60;99.90
52127;DHT22;38120;53.176;6.614;2023-04-03T02:34:30;0.60;99.90
52127;DHT22;38120;53.176;6.614;2023-04-03T02:36:56;0.90;99.90
52127;DHT22;38120;53.176;6.614;2023-04-03T02:39:22;0.50;99.90
52127;DHT22;38120;53.176;6.614;2023-04-03T02:41:48;0.50;99.90
52127;DHT22;38120;53.176;6.614;2023-04-03T02:44:16;0.40;99.90
52127;DHT22;38120;53.176;6.614;2023-04-03T02:46:41;0.40;99.90
52127;DHT22;38120;53.176;6.614;2023-04-03T02:49:07;0.30;99.90
52127;DHT22;38120;53.176;6.614;2023-04-03T02:51:33;1.10;99.90
52127;DHT22;38120;53.176;6.614;2023-04-03T02:53:59;0.20;99.90
52127;DHT22;38120;53.176;6.614;2023-04-03T02:56:25;0.20;99.90
52127;DHT22;38120;53.176;6.614;2023-04-03T02:58:52;0.10;99.90
52127;DHT22;38120;53.176;6.614;2023-04-03T03:01:18;0.40;99.90
52127;DHT22;38120;53.176;6.614;2023-04-03T03:03:44;0.10;99.90
52127;DHT22;38120;53.176;6.614;2023-04-03T03:06:13;0.10;99.90
52127;DHT22;38120;53.176;6.614;2023-04-03T03:08:39;0.10;99.90
52127;DHT22;38120;53.176;6.614;2023-04-03T03:11:06;0.00;99.90
52127;DHT22;38120;53.176;6.614;2023-04-03T03:13:32;-0.10;99.90
52127;DHT22;38120;53.176;6.614;2023-04-03T03:15:58;-0.10;99.90
52127;DHT22;38120;53.176;6.614;2023-04-03T03:18:24;-0.10;99.90
52127;DHT22;38120;53.176;6.614;2023-04-03T03:20:54;-0.10;99.90
52127;DHT22;38120;53.176;6.614;2023-04-03T03:23:21;-0.10;99.90
52127;DHT22;38120;53.176;6.614;2023-04-03T03:25:47;-0.10;99.90
52127;DHT22;38120;53.176;6.614;2023-04-03T03:28:13;-0.10;99.90
52127;DHT22;38120;53.176;6.614;2023-04-03T03:30:42;-0.20;99.90
52127;DHT22;38120;53.176;6.614;2023-04-03T03:33:08;-0.20;99.90
52127;DHT22;38120;53.176;6.614;2023-04-03T03:35:39;-0.20;99.90
52127;DHT22;38120;53.176;6.614;2023-04-03T03:38:05;-0.30;99.90
52127;DHT22;38120;53.176;6.614;2023-04-03T03:40:31;-0.30;99.90
52127;DHT22;38120;53.176;6.614;2023-04-03T03:42:57;-0.30;99.90
52127;DHT22;38120;53.176;6.614;2023-04-03T03:45:23;-0.30;99.90
52127;DHT22;38120;53.176;6.614;2023-04-03T03:47:48;-0.40;99.90
52127;DHT22;38120;53.176;6.614;2023-04-03T03:50:14;-0.30;99.90
52127;DHT22;38120;53.176;6.614;2023-04-03T03:52:40;-0.30;99.90
52127;DHT22;38120;53.176;6.614;2023-04-03T03:55:06;1.10;99.90
52127;DHT22;38120;53.176;6.614;2023-04-03T03:57:31;-0.30;99.90
52127;DHT22;38120;53.176;6.614;2023-04-03T03:59:57;-0.30;99.90
52127;DHT22;38120;53.176;6.614;2023-04-03T04:02:23;-0.50;99.90
52127;DHT22;38120;53.176;6.614;2023-04-03T04:04:49;-0.40;99.90
52127;DHT22;38120;53.176;6.614;2023-04-03T04:07:15;-0.40;99.90
52127;DHT22;38120;53.176;6.614;2023-04-03T04:09:40;-0.40;99.90
52127;DHT22;38120;53.176;6.614;2023-04-03T04:12:06;-0.30;99.90
52127;DHT22;38120;53.176;6.614;2023-04-03T04:14:32;-0.30;99.90
52127;DHT22;38120;53.176;6.614;2023-04-03T04:16:58;-0.40;99.90
52127;DHT22;38120;53.176;6.614;2023-04-03T04:19:23;-0.40;99.90
52127;DHT22;38120;53.176;6.614;2023-04-03T04:21:49;-0.40;99.90
52127;DHT22;38120;53.176;6.614;2023-04-03T04:24:15;-0.40;99.90
52127;DHT22;38120;53.176;6.614;2023-04-03T04:26:41;-0.40;99.90
52127;DHT22;38120;53.176;6.614;2023-04-03T04:29:09;-0.50;99.90
52127;DHT22;38120;53.176;6.614;2023-04-03T04:31:35;-0.40;99.90
52127;DHT22;38120;53.176;6.614;2023-04-03T04:34:01;-0.50;99.90
52127;DHT22;38120;53.176;6.614;2023-04-03T04:36:26;-0.60;99.90
52127;DHT22;38120;53.176;6.614;2023-04-03T04:38:52;-0.70;99.90
52127;DHT22;38120;53.176;6.614;2023-04-03T04:41:21;-0.60;99.90
52127;DHT22;38120;53.176;6.614;2023-04-03T04:43:48;-0.60;99.90
52127;DHT22;38120;53.176;6.614;2023-04-03T04:46:13;-0.60;99.90
52127;DHT22;38120;53.176;6.614;2023-04-03T04:48:39;-0.40;99.90
52127;DHT22;38120;53.176;6.614;2023-04-03T04:51:05;-0.60;99.90
52127;DHT22;38120;53.176;6.614;2023-04-03T04:53:31;-0.60;99.90
52127;DHT22;38120;53.176;6.614;2023-04-03T04:55:57;-0.60;99.90
52127;DHT22;38120;53.176;6.614;2023-04-03T04:58:22;-0.10;99.90
52127;DHT22;38120;53.176;6.614;2023-04-03T05:00:48;-0.10;99.90
52127;DHT22;38120;53.176;6.614;2023-04-03T05:03:14;-0.60;99.90
52127;DHT22;38120;53.176;6.614;2023-04-03T05:05:40;-0.60;99.90
52127;DHT22;38120;53.176;6.614;2023-04-03T05:08:06;-0.60;99.90
52127;DHT22;38120;53.176;6.614;2023-04-03T05:10:34;-0.60;99.90
52127;DHT22;38120;53.176;6.614;2023-04-03T05:13:00;-0.70;99.90
52127;DHT22;38120;53.176;6.614;2023-04-03T05:15:25;-0.70;99.90
52127;DHT22;38120;53.176;6.614;2023-04-03T05:17:51;-0.80;99.90
52127;DHT22;38120;53.176;6.614;2023-04-03T05:20:22;-0.70;99.90
52127;DHT22;38120;53.176;6.614;2023-04-03T05:22:48;-0.70;99.90
52127;DHT22;38120;53.176;6.614;2023-04-03T05:25:14;-0.30;99.90
52127;DHT22;38120;53.176;6.614;2023-04-03T05:27:40;-0.70;99.90
52127;DHT22;38120;53.176;6.614;2023-04-03T05:30:06;-0.70;99.90
52127;DHT22;38120;53.176;6.614;2023-04-03T05:32:32;-0.70;99.90
52127;DHT22;38120;53.176;6.614;2023-04-03T05:34:58;-0.70;99.90
52127;DHT22;38120;53.176;6.614;2023-04-03T05:37:24;-0.70;99.90
52127;DHT22;38120;53.176;6.614;2023-04-03T05:39:50;-0.70;99.90
52127;DHT22;38120;53.176;6.614;2023-04-03T05:42:16;-0.70;99.90
52127;DHT22;38120;53.176;6.614;2023-04-03T05:44:42;-0.70;99.90
52127;DHT22;38120;53.176;6.614;2023-04-03T05:47:08;-0.60;99.90
52127;DHT22;38120;53.176;6.614;2023-04-03T05:49:34;0.70;99.90
52127;DHT22;38120;53.176;6.614;2023-04-03T05:52:01;-0.50;99.90
52127;DHT22;38120;53.176;6.614;2023-04-03T05:54:28;-0.40;99.90
52127;DHT22;38120;53.176;6.614;2023-04-03T05:56:54;-0.40;99.90
52127;DHT22;38120;53.176;6.614;2023-04-03T05:59:21;-0.40;99.90
52127;DHT22;38120;53.176;6.614;2023-04-03T06:01:47;-0.30;99.90
52127;DHT22;38120;53.176;6.614;2023-04-03T06:04:16;-0.20;99.90
52127;DHT22;38120;53.176;6.614;2023-04-03T06:06:47;-0.20;99.90
52127;DHT22;38120;53.176;6.614;2023-04-03T06:09:16;-0.10;99.90
52127;DHT22;38120;53.176;6.614;2023-04-03T06:11:42;-0.10;99.90
52127;DHT22;38120;53.176;6.614;2023-04-03T06:14:08;-0.10;99.90
52127;DHT22;38120;53.176;6.614;2023-04-03T06:16:34;0.00;99.90
52127;DHT22;38120;53.176;6.614;2023-04-03T06:19:00;0.10;99.90
52127;DHT22;38120;53.176;6.614;2023-04-03T06:21:28;0.10;99.90
52127;DHT22;38120;53.176;6.614;2023-04-03T06:23:54;0.20;99.90
52127;DHT22;38120;53.176;6.614;2023-04-03T06:26:20;0.30;99.90
52127;DHT22;38120;53.176;6.614;2023-04-03T06:28:46;0.30;99.90
52127;DHT22;38120;53.176;6.614;2023-04-03T06:31:12;0.50;99.90
52127;DHT22;38120;53.176;6.614;2023-04-03T06:33:37;0.60;99.90
52127;DHT22;38120;53.176;6.614;2023-04-03T06:36:04;0.60;99.90
52127;DHT22;38120;53.176;6.614;2023-04-03T06:38:32;0.70;99.90
52127;DHT22;38120;53.176;6.614;2023-04-03T06:40:59;0.70;99.90
52127;DHT22;38120;53.176;6.614;2023-04-03T06:43:25;0.80;99.90
52127;DHT22;38120;53.176;6.614;2023-04-03T06:45:51;0.90;99.90
52127;DHT22;38120;53.176;6.614;2023-04-03T06:48:17;1.00;99.90
52127;DHT22;38120;53.176;6.614;2023-04-03T06:50:43;1.00;99.90
52127;DHT22;38120;53.176;6.614;2023-04-03T06:53:11;1.10;99.90
52127;DHT22;38120;53.176;6.614;2023-04-03T06:55:37;1.10;99.90
52127;DHT22;38120;53.176;6.614;2023-04-03T06:58:03;1.20;99.90
52127;DHT22;38120;53.176;6.614;2023-04-03T07:00:30;1.50;99.90
52127;DHT22;38120;53.176;6.614;2023-04-03T07:02:56;1.30;99.90
52127;DHT22;38120;53.176;6.614;2023-04-03T07:05:23;1.40;99.90
52127;DHT22;38120;53.176;6.614;2023-04-03T07:07:49;1.40;99.90
52127;DHT22;38120;53.176;6.614;2023-04-03T07:10:16;1.50;99.90
52127;DHT22;38120;53.176;6.614;2023-04-03T07:12:42;1.60;99.90
52127;DHT22;38120;53.176;6.614;2023-04-03T07:15:08;2.20;99.90
52127;DHT22;38120;53.176;6.614;2023-04-03T07:17:34;1.80;99.90
52127;DHT22;38120;53.176;6.614;2023-04-03T07:20:00;1.90;99.90
52127;DHT22;38120;53.176;6.614;2023-04-03T07:22:25;2.00;99.90
52127;DHT22;38120;53.176;6.614;2023-04-03T07:24:51;2.10;99.90
52127;DHT22;38120;53.176;6.614;2023-04-03T07:27:17;2.10;99.90
52127;DHT22;38120;53.176;6.614;2023-04-03T07:29:43;2.20;99.90
52127;DHT22;38120;53.176;6.614;2023-04-03T07:32:10;2.20;99.90
52127;DHT22;38120;53.176;6.614;2023-04-03T07:34:36;2.30;99.90
52127;DHT22;38120;53.176;6.614;2023-04-03T07:37:02;2.40;99.90
52127;DHT22;38120;53.176;6.614;2023-04-03T07:39:28;2.50;99.90
52127;DHT22;38120;53.176;6.614;2023-04-03T07:41:54;2.60;99.90
52127;DHT22;38120;53.176;6.614;2023-04-03T07:44:23;2.70;99.90
52127;DHT22;38120;53.176;6.614;2023-04-03T07:46:49;2.70;99.90
52127;DHT22;38120;53.176;6.614;2023-04-03T07:49:16;2.80;99.90
52127;DHT22;38120;53.176;6.614;2023-04-03T07:51:44;2.80;99.90
52127;DHT22;38120;53.176;6.614;2023-04-03T07:54:10;3.00;99.90
52127;DHT22;38120;53.176;6.614;2023-04-03T07:56:36;3.10;99.90
52127;DHT22;38120;53.176;6.614;2023-04-03T07:59:02;3.10;99.90
52127;DHT22;38120;53.176;6.614;2023-04-03T08:01:38;3.20;99.90
52127;DHT22;38120;53.176;6.614;2023-04-03T08:04:04;3.30;99.90
52127;DHT22;38120;53.176;6.614;2023-04-03T08:06:31;3.50;99.90
52127;DHT22;38120;53.176;6.614;2023-04-03T08:08:58;3.60;99.90
52127;DHT22;38120;53.176;6.614;2023-04-03T08:11:24;3.70;99.90
52127;DHT22;38120;53.176;6.614;2023-04-03T08:13:52;5.10;99.90
52127;DHT22;38120;53.176;6.614;2023-04-03T08:16:20;3.90;99.90
52127;DHT22;38120;53.176;6.614;2023-04-03T08:18:48;4.40;99.90
52127;DHT22;38120;53.176;6.614;2023-04-03T08:21:14;3.90;99.90
52127;DHT22;38120;53.176;6.614;2023-04-03T08:23:40;4.30;99.90
52127;DHT22;38120;53.176;6.614;2023-04-03T08:26:12;4.10;99.90
52127;DHT22;38120;53.176;6.614;2023-04-03T08:28:39;4.30;99.90
52127;DHT22;38120;53.176;6.614;2023-04-03T08:31:07;4.30;99.90
52127;DHT22;38120;53.176;6.614;2023-04-03T08:33:34;4.60;99.90
52127;DHT22;38120;53.176;6.614;2023-04-03T08:36:03;4.40;99.90
52127;DHT22;38120;53.176;6.614;2023-04-03T08:38:29;4.40;99.90
52127;DHT22;38120;53.176;6.614;2023-04-03T08:41:10;4.40;99.90
52127;DHT22;38120;53.176;6.614;2023-04-03T08:43:56;4.70;99.90
52127;DHT22;38120;53.176;6.614;2023-04-03T08:46:35;4.60;99.90
52127;DHT22;38120;53.176;6.614;2023-04-03T08:49:04;4.60;99.90
52127;DHT22;38120;53.176;6.614;2023-04-03T08:51:33;4.70;99.90
52127;DHT22;38120;53.176;6.614;2023-04-03T08:54:04;4.90;99.90
52127;DHT22;38120;53.176;6.614;2023-04-03T08:56:33;4.90;99.90
52127;DHT22;38120;53.176;6.614;2023-04-03T08:59:00;4.90;99.90
52127;DHT22;38120;53.176;6.614;2023-04-03T09:01:36;5.10;99.90
52127;DHT22;38120;53.176;6.614;2023-04-03T09:04:03;5.00;99.90
52127;DHT22;38120;53.176;6.614;2023-04-03T09:06:34;5.30;99.90
52127;DHT22;38120;53.176;6.614;2023-04-03T09:12:03;5.20;1.00
52127;DHT22;38120;53.176;6.614;2023-04-03T09:26:09;5.60;1.00
52127;DHT22;38120;53.176;6.614;2023-04-03T09:28:39;5.60;99.90
52127;DHT22;38120;53.176;6.614;2023-04-03T09:31:21;5.60;99.90
52127;DHT22;38120;53.176;6.614;2023-04-03T09:33:56;5.80;99.90
52127;DHT22;38120;53.176;6.614;2023-04-03T09:36:50;5.90;99.90
52127;DHT22;38120;53.176;6.614;2023-04-03T09:39:28;6.00;36.80
52127;DHT22;38120;53.176;6.614;2023-04-03T09:42:04;6.10;1.00
52127;DHT22;38120;53.176;6.614;2023-04-03T09:44:35;6.10;1.00
52127;DHT22;38120;53.176;6.614;2023-04-03T09:47:23;6.30;1.00
52127;DHT22;38120;53.176;6.614;2023-04-03T09:49:49;6.30;1.00
52127;DHT22;38120;53.176;6.614;2023-04-03T09:52:25;6.70;99.90
52127;DHT22;38120;53.176;6.614;2023-04-03T09:54:52;6.60;99.90
52127;DHT22;38120;53.176;6.614;2023-04-03T09:57:18;6.80;99.90
52127;DHT22;38120;53.176;6.614;2023-04-03T09:59:56;6.90;99.90
52127;DHT22;38120;53.176;6.614;2023-04-03T10:02:28;7.10;99.90
52127;DHT22;38120;53.176;6.614;2023-04-03T10:04:56;6.90;99.90
52127;DHT22;38120;53.176;6.614;2023-04-03T10:07:34;7.00;99.90
52127;DHT22;38120;53.176;6.614;2023-04-03T10:10:22;6.90;90.00
52127;DHT22;38120;53.176;6.614;2023-04-03T10:13:05;7.00;75.70
52127;DHT22;38120;53.176;6.614;2023-04-03T10:15:56;7.10;56.90
52127;DHT22;38120;53.176;6.614;2023-04-03T10:21:29;7.20;18.70
52127;DHT22;38120;53.176;6.614;2023-04-03T10:24:21;7.40;21.60
52127;DHT22;38120;53.176;6.614;2023-04-03T10:27:01;7.40;1.00
52127;DHT22;38120;53.176;6.614;2023-04-03T10:29:50;7.40;1.00
52127;DHT22;38120;53.176;6.614;2023-04-03T10:40:50;7.80;1.00
52127;DHT22;38120;53.176;6.614;2023-04-03T10:43:29;8.00;1.00
52127;DHT22;38120;53.176;6.614;2023-04-03T10:46:26;8.00;1.00
52127;DHT22;38120;53.176;6.614;2023-04-03T10:51:57;8.30;1.00
52127;DHT22;38120;53.176;6.614;2023-04-03T10:54:38;8.20;1.00
52127;DHT22;38120;53.176;6.614;2023-04-03T10:57:08;8.00;1.00
52127;DHT22;38120;53.176;6.614;2023-04-03T10:59:50;8.10;1.00
52127;DHT22;38120;53.176;6.614;2023-04-03T11:02:45;8.40;1.00
52127;DHT22;38120;53.176;6.614;2023-04-03T11:11:35;8.20;1.00
52127;DHT22;38120;53.176;6.614;2023-04-03T11:14:29;8.40;1.00
52127;DHT22;38120;53.176;6.614;2023-04-03T11:20:20;8.50;1.00
52127;DHT22;38120;53.176;6.614;2023-04-03T11:22:58;8.70;1.00
52127;DHT22;38120;53.176;6.614;2023-04-03T11:25:29;8.90;1.00
52127;DHT22;38120;53.176;6.614;2023-04-03T11:28:04;8.90;1.00
52127;DHT22;38120;53.176;6.614;2023-04-03T11:30:58;8.80;1.00
52127;DHT22;38120;53.176;6.614;2023-04-03T11:36:45;8.60;1.00
52127;DHT22;38120;53.176;6.614;2023-04-03T11:39:36;8.50;1.00
52127;DHT22;38120;53.176;6.614;2023-04-03T11:42:21;8.60;1.00
52127;DHT22;38120;53.176;6.614;2023-04-03T11:44:49;8.50;1.00
52127;DHT22;38120;53.176;6.614;2023-04-03T11:47:44;8.70;1.00
52127;DHT22;38120;53.176;6.614;2023-04-03T11:53:00;8.90;1.00
52127;DHT22;38120;53.176;6.614;2023-04-03T12:31:49;9.50;1.00
52127;DHT22;38120;53.176;6.614;2023-04-03T12:37:57;9.60;1.00
52127;DHT22;38120;53.176;6.614;2023-04-03T12:40:36;9.50;1.00
52127;DHT22;38120;53.176;6.614;2023-04-03T12:48:30;9.60;1.00
52127;DHT22;38120;53.176;6.614;2023-04-03T12:50:58;9.70;1.00
52127;DHT22;38120;53.176;6.614;2023-04-03T12:53:35;9.60;1.00
52127;DHT22;38120;53.176;6.614;2023-04-03T12:56:20;9.70;1.00
52127;DHT22;38120;53.176;6.614;2023-04-03T12:58:48;9.70;1.00
52127;DHT22;38120;53.176;6.614;2023-04-03T13:01:24;9.70;1.00
52127;DHT22;38120;53.176;6.614;2023-04-03T13:03:56;9.70;1.00
52127;DHT22;38120;53.176;6.614;2023-04-03T13:06:23;9.80;1.00
52127;DHT22;38120;53.176;6.614;2023-04-03T13:08:51;9.80;1.00
52127;DHT22;38120;53.176;6.614;2023-04-03T13:11:19;9.90;1.00
52127;DHT22;38120;53.176;6.614;2023-04-03T13:14:00;9.90;1.00
52127;DHT22;38120;53.176;6.614;2023-04-03T13:16:26;9.80;1.00
52127;DHT22;38120;53.176;6.614;2023-04-03T13:18:53;9.80;1.00
52127;DHT22;38120;53.176;6.614;2023-04-03T13:21:39;9.80;1.00
52127;DHT22;38120;53.176;6.614;2023-04-03T13:24:05;9.70;1.00
52127;DHT22;38120;53.176;6.614;2023-04-03T13:26:32;10.10;1.00
52127;DHT22;38120;53.176;6.614;2023-04-03T13:29:06;10.00;1.00
52127;DHT22;38120;53.176;6.614;2023-04-03T13:31:39;9.90;1.00
52127;DHT22;38120;53.176;6.614;2023-04-03T13:34:11;9.70;1.00
52127;DHT22;38120;53.176;6.614;2023-04-03T13:36:45;9.90;1.00
52127;DHT22;38120;53.176;6.614;2023-04-03T13:41:44;10.20;1.00
52127;DHT22;38120;53.176;6.614;2023-04-03T13:46:50;10.30;1.00
52127;DHT22;38120;53.176;6.614;2023-04-03T13:52:01;10.20;99.90
52127;DHT22;38120;53.176;6.614;2023-04-03T13:54:37;10.20;1.00
52127;DHT22;38120;53.176;6.614;2023-04-03T13:57:12;10.20;99.90
52127;DHT22;38120;53.176;6.614;2023-04-03T13:59:38;10.40;1.00
52127;DHT22;38120;53.176;6.614;2023-04-03T14:04:35;10.40;1.00
52127;DHT22;38120;53.176;6.614;2023-04-03T14:07:14;10.70;1.00
52127;DHT22;38120;53.176;6.614;2023-04-03T14:09:41;10.70;1.00
52127;DHT22;38120;53.176;6.614;2023-04-03T14:12:34;10.60;1.00
52127;DHT22;38120;53.176;6.614;2023-04-03T14:15:10;10.20;1.00
52127;DHT22;38120;53.176;6.614;2023-04-03T14:17:37;10.20;1.00
52127;DHT22;38120;53.176;6.614;2023-04-03T14:20:04;10.10;1.00
52127;DHT22;38120;53.176;6.614;2023-04-03T14:22:32;10.30;1.00
52127;DHT22;38120;53.176;6.614;2023-04-03T14:24:58;10.30;1.00
52127;DHT22;38120;53.176;6.614;2023-04-03T14:27:27;11.50;1.00
52127;DHT22;38120;53.176;6.614;2023-04-03T14:29:55;10.30;1.00
52127;DHT22;38120;53.176;6.614;2023-04-03T14:32:23;10.30;1.00
52127;DHT22;38120;53.176;6.614;2023-04-03T14:34:50;9.90;1.00
52127;DHT22;38120;53.176;6.614;2023-04-03T14:37:23;10.00;1.00
52127;DHT22;38120;53.176;6.614;2023-04-03T14:39:49;10.20;1.00
52127;DHT22;38120;53.176;6.614;2023-04-03T14:42:45;9.80;1.00
52127;DHT22;38120;53.176;6.614;2023-04-03T14:45:13;10.00;1.00
52127;DHT22;38120;53.176;6.614;2023-04-03T14:47:40;9.90;1.00
52127;DHT22;38120;53.176;6.614;2023-04-03T14:50:11;10.20;1.00
52127;DHT22;38120;53.176;6.614;2023-04-03T14:52:38;10.00;1.00
52127;DHT22;38120;53.176;6.614;2023-04-03T14:55:05;10.00;1.00
52127;DHT22;38120;53.176;6.614;2023-04-03T14:57:31;9.70;1.00
52127;DHT22;38120;53.176;6.614;2023-04-03T14:59:58;9.90;1.00
52127;DHT22;38120;53.176;6.614;2023-04-03T15:02:30;9.70;1.00
52127;DHT22;38120;53.176;6.614;2023-04-03T15:04:57;9.90;1.00
52127;DHT22;38120;53.176;6.614;2023-04-03T15:07:25;9.80;1.00
52127;DHT22;38120;53.176;6.614;2023-04-03T15:09:52;9.90;1.00
52127;DHT22;38120;53.176;6.614;2023-04-03T15:12:18;10.00;1.00
52127;DHT22;38120;53.176;6.614;2023-04-03T15:14:44;10.10;1.00
52127;DHT22;38120;53.176;6.614;2023-04-03T15:17:22;10.30;1.00
52127;DHT22;38120;53.176;6.614;2023-04-03T15:19:48;10.10;1.00
52127;DHT22;38120;53.176;6.614;2023-04-03T15:22:19;10.00;1.00
52127;DHT22;38120;53.176;6.614;2023-04-03T15:24:45;10.20;1.00
52127;DHT22;38120;53.176;6.614;2023-04-03T15:27:12;10.20;1.00
52127;DHT22;38120;53.176;6.614;2023-04-03T15:29:40;10.00;99.90
52127;DHT22;38120;53.176;6.614;2023-04-03T15:32:06;10.10;99.90
52127;DHT22;38120;53.176;6.614;2023-04-03T15:34:32;10.30;1.00
52127;DHT22;38120;53.176;6.614;2023-04-03T15:36:58;10.40;1.00
52127;DHT22;38120;53.176;6.614;2023-04-03T15:39:25;10.40;1.00
52127;DHT22;38120;53.176;6.614;2023-04-03T15:41:51;10.10;99.90
52127;DHT22;38120;53.176;6.614;2023-04-03T15:44:20;10.00;99.90
52127;DHT22;38120;53.176;6.614;2023-04-03T15:46:47;10.10;99.90
52127;DHT22;38120;53.176;6.614;2023-04-03T15:49:14;10.20;1.00
52127;DHT22;38120;53.176;6.614;2023-04-03T15:51:40;10.20;1.00
52127;DHT22;38120;53.176;6.614;2023-04-03T15:54:06;10.30;99.90
52127;DHT22;38120;53.176;6.614;2023-04-03T15:56:32;10.30;99.90
52127;DHT22;38120;53.176;6.614;2023-04-03T15:58:58;10.40;99.90
52127;DHT22;38120;53.176;6.614;2023-04-03T16:01:23;10.80;1.00
52127;DHT22;38120;53.176;6.614;2023-04-03T16:03:49;11.30;1.00
52127;DHT22;38120;53.176;6.614;2023-04-03T16:06:16;11.10;1.00
52127;DHT22;38120;53.176;6.614;2023-04-03T16:08:43;11.30;1.00
52127;DHT22;38120;53.176;6.614;2023-04-03T16:11:09;11.40;1.00
52127;DHT22;38120;53.176;6.614;2023-04-03T16:13:35;11.90;1.00
52127;DHT22;38120;53.176;6.614;2023-04-03T16:16:01;11.80;1.00
52127;DHT22;38120;53.176;6.614;2023-04-03T16:18:27;11.80;1.00
52127;DHT22;38120;53.176;6.614;2023-04-03T16:20:54;12.00;1.00
52127;DHT22;38120;53.176;6.614;2023-04-03T16:23:20;11.80;99.90
52127;DHT22;38120;53.176;6.614;2023-04-03T16:25:46;11.70;99.90
52127;DHT22;38120;53.176;6.614;2023-04-03T16:28:13;12.10;99.90
52127;DHT22;38120;53.176;6.614;2023-04-03T16:30:46;12.00;99.90
52127;DHT22;38120;53.176;6.614;2023-04-03T16:33:13;11.90;99.90
52127;DHT22;38120;53.176;6.614;2023-04-03T16:35:39;11.80;99.90
52127;DHT22;38120;53.176;6.614;2023-04-03T16:38:04;11.60;99.90
52127;DHT22;38120;53.176;6.614;2023-04-03T16:40:31;12.10;99.90
52127;DHT22;38120;53.176;6.614;2023-04-03T16:42:59;11.60;99.90
52127;DHT22;38120;53.176;6.614;2023-04-03T16:45:25;10.80;99.90
52127;DHT22;38120;53.176;6.614;2023-04-03T16:47:50;10.70;99.90
52127;DHT22;38120;53.176;6.614;2023-04-03T16:50:16;10.80;99.90
52127;DHT22;38120;53.176;6.614;2023-04-03T16:52:42;10.20;99.90
52127;DHT22;38120;53.176;6.614;2023-04-03T16:55:08;10.00;1.00
52127;DHT22;38120;53.176;6.614;2023-04-03T16:57:34;10.60;1.00
52127;DHT22;38120;53.176;6.614;2023-04-03T16:59:59;10.50;1.00
52127;DHT22;38120;53.176;6.614;2023-04-03T17:02:25;10.10;1.00
52127;DHT22;38120;53.176;6.614;2023-04-03T17:04:52;10.10;1.00
52127;DHT22;38120;53.176;6.614;2023-04-03T17:07:21;9.50;1.00
52127;DHT22;38120;53.176;6.614;2023-04-03T17:09:47;8.90;1.00
52127;DHT22;38120;53.176;6.614;2023-04-03T17:12:13;8.70;1.00
52127;DHT22;38120;53.176;6.614;2023-04-03T17:14:40;8.40;1.00
52127;DHT22;38120;53.176;6.614;2023-04-03T17:17:06;8.20;1.00
52127;DHT22;38120;53.176;6.614;2023-04-03T17:19:33;7.90;1.00
52127;DHT22;38120;53.176;6.614;2023-04-03T17:21:59;7.80;1.00
52127;DHT22;38120;53.176;6.614;2023-04-03T17:24:25;7.50;1.00
52127;DHT22;38120;53.176;6.614;2023-04-03T17:26:51;7.40;1.00
52127;DHT22;38120;53.176;6.614;2023-04-03T17:29:17;7.20;1.00
52127;DHT22;38120;53.176;6.614;2023-04-03T17:31:43;7.30;1.00
52127;DHT22;38120;53.176;6.614;2023-04-03T17:34:10;7.00;1.00
52127;DHT22;38120;53.176;6.614;2023-04-03T17:36:39;6.90;30.30
52127;DHT22;38120;53.176;6.614;2023-04-03T17:39:05;6.80;51.50
52127;DHT22;38120;53.176;6.614;2023-04-03T17:41:31;6.90;71.30
52127;DHT22;38120;53.176;6.614;2023-04-03T17:43:57;6.60;97.40